createdAt,value
2017-07-20T00:01:03.585Z,19.01
2017-07-20T00:02:16.163Z,19.01
2017-07-20T00:03:28.847Z,19
2017-07-20T00:04:41.101Z,19.01
2017-07-20T00:05:53.738Z,19.05
2017-07-20T00:07:06.065Z,19.01
2017-07-20T00:08:18.028Z,19.01
2017-07-20T00:09:30.624Z,19.09
2017-07-20T00:10:43.480Z,19.09
2017-07-20T00:11:55.751Z,18.98
2017-07-20T00:13:08.097Z,19.08
2017-07-20T00:14:20.165Z,19.08
2017-07-20T00:15:32.737Z,19.09
2017-07-20T00:16:45.034Z,19.05
2017-07-20T00:17:57.634Z,19
2017-07-20T00:19:10.233Z,18.96
2017-07-20T00:20:22.837Z,19.11
2017-07-20T00:21:35.448Z,19.01
2017-07-20T00:22:48.069Z,19.11
2017-07-20T00:24:00.710Z,18.98
2017-07-20T00:25:13.332Z,19.08
2017-07-20T00:26:25.929Z,18.98
2017-07-20T00:27:38.545Z,19.09
2017-07-20T00:28:51.159Z,19.01
2017-07-20T00:30:03.746Z,18.96
2017-07-20T00:31:15.793Z,19.12
2017-07-20T00:32:28.405Z,18.97
2017-07-20T00:33:40.977Z,18.97
2017-07-20T00:34:53.296Z,19.07
2017-07-20T00:36:05.559Z,19.15
2017-07-20T00:37:17.901Z,19
2017-07-20T00:38:30.202Z,19.07
2017-07-20T00:39:42.478Z,19.11
2017-07-20T00:40:54.782Z,19.09
2017-07-20T00:42:07.109Z,19.16
2017-07-20T00:43:19.721Z,19.08
2017-07-20T00:44:32.036Z,19.08
2017-07-20T00:45:44.711Z,19.09
2017-07-20T00:46:57.300Z,19.09
2017-07-20T00:48:09.321Z,19.19
2017-07-20T00:49:21.352Z,19.09
2017-07-20T00:50:33.994Z,19.11
2017-07-20T00:51:46.675Z,19.15
2017-07-20T00:52:59.317Z,19.19
2017-07-20T00:54:11.609Z,19.12
2017-07-20T00:55:24.218Z,19.16
2017-07-20T00:56:36.229Z,19.23
2017-07-20T00:57:48.512Z,19.15
2017-07-20T00:59:01.115Z,19.12
2017-07-20T01:00:13.768Z,19.23
2017-07-20T01:01:26.107Z,19.2
2017-07-20T01:02:38.713Z,19.16
2017-07-20T01:03:51.340Z,19.2
2017-07-20T01:05:03.982Z,19.19
2017-07-20T01:06:16.292Z,19.19
2017-07-20T01:07:28.936Z,19.17
2017-07-20T01:08:41.238Z,19.12
2017-07-20T01:09:53.826Z,19.12
2017-07-20T01:11:06.164Z,19.09
2017-07-20T01:12:18.468Z,19.15
2017-07-20T01:13:31.054Z,19.11
2017-07-20T01:14:43.400Z,19.19
2017-07-20T01:15:55.718Z,19.17
2017-07-20T01:17:08.014Z,19.15
2017-07-20T01:18:20.629Z,19.15
2017-07-20T01:19:33.270Z,19.11
2017-07-20T01:20:45.517Z,19.09
2017-07-20T01:21:57.813Z,19.11
2017-07-20T01:23:10.457Z,19.09
2017-07-20T01:24:22.722Z,19.12
2017-07-20T01:25:35.339Z,19.17
2017-07-20T01:26:47.923Z,19.16
2017-07-20T01:28:00.519Z,19.16
2017-07-20T01:29:13.096Z,19.09
2017-07-20T01:30:25.689Z,19.15
2017-07-20T01:31:37.998Z,19.2
2017-07-20T01:32:50.551Z,19.16
2017-07-20T01:34:02.872Z,19.16
2017-07-20T01:35:14.872Z,19.15
2017-07-20T01:36:27.486Z,19.12
2017-07-20T01:37:40.372Z,19.12
2017-07-20T01:38:53.034Z,19.23
2017-07-20T01:40:05.318Z,19.17
2017-07-20T01:41:17.305Z,19.15
2017-07-20T01:42:29.920Z,19.23
2017-07-20T01:43:42.530Z,19.2
2017-07-20T01:44:55.222Z,19.19
2017-07-20T01:46:07.843Z,19.26
2017-07-20T01:47:20.204Z,19.12
2017-07-20T01:48:32.560Z,19.22
2017-07-20T01:49:45.162Z,19.15
2017-07-20T01:50:57.451Z,19.15
2017-07-20T01:52:10.095Z,19.24
2017-07-20T01:53:22.684Z,19.22
2017-07-20T01:54:35.004Z,19.22
2017-07-20T01:55:47.602Z,19.23
2017-07-20T01:57:00.199Z,19.22
2017-07-20T01:58:12.845Z,19.17
2017-07-20T01:59:25.764Z,19.15
2017-07-20T02:00:37.835Z,19.2
2017-07-20T02:01:50.446Z,19.22
2017-07-20T02:03:03.099Z,19.17
2017-07-20T02:04:15.706Z,19.22
2017-07-20T02:05:28.318Z,19.22
2017-07-20T02:06:40.846Z,19.16
2017-07-20T02:07:53.479Z,19.15
2017-07-20T02:09:06.121Z,19.19
2017-07-20T02:10:18.767Z,19.23
2017-07-20T02:11:31.011Z,19.17
2017-07-20T02:12:43.328Z,19.16
2017-07-20T02:13:55.985Z,19.2
2017-07-20T02:15:08.634Z,19.19
2017-07-20T02:16:21.291Z,19.19
2017-07-20T02:17:33.995Z,19.22
2017-07-20T02:18:46.547Z,19.24
2017-07-20T02:19:58.833Z,19.15
2017-07-20T02:21:11.402Z,19.22
2017-07-20T02:22:23.443Z,19.23
2017-07-20T02:23:35.757Z,19.26
2017-07-20T02:24:48.352Z,19.2
2017-07-20T02:26:00.654Z,19.12
2017-07-20T02:27:13.292Z,19.19
2017-07-20T02:28:25.890Z,19.2
2017-07-20T02:29:38.526Z,19.19
2017-07-20T02:30:51.164Z,19.16
2017-07-20T02:32:04.132Z,19.16
2017-07-20T02:33:16.119Z,19.15
2017-07-20T02:34:28.724Z,19.17
2017-07-20T02:35:41.100Z,19.19
2017-07-20T02:36:53.764Z,19.11
2017-07-20T02:38:06.383Z,19.11
2017-07-20T02:39:18.681Z,19.12
2017-07-20T02:40:31.000Z,19.11
2017-07-20T02:41:43.316Z,19.08
2017-07-20T02:42:55.919Z,19.11
2017-07-20T02:44:08.494Z,19.07
2017-07-20T02:45:20.772Z,19.08
2017-07-20T02:46:33.301Z,19.11
2017-07-20T02:47:45.583Z,19.15
2017-07-20T02:48:57.596Z,19.12
2017-07-20T02:50:10.250Z,19.09
2017-07-20T02:51:22.935Z,19.08
2017-07-20T02:52:35.564Z,19.11
2017-07-20T02:53:48.178Z,19.08
2017-07-20T02:55:00.798Z,19.11
2017-07-20T02:56:13.095Z,19.11
2017-07-20T02:57:25.439Z,19.11
2017-07-20T02:58:38.029Z,19.07
2017-07-20T02:59:50.622Z,19.09
2017-07-20T03:01:02.907Z,19.12
2017-07-20T03:02:15.239Z,19.09
2017-07-20T03:03:27.545Z,19.09
2017-07-20T03:04:40.117Z,19.09
2017-07-20T03:05:52.418Z,19.08
2017-07-20T03:07:05.036Z,19.08
2017-07-20T03:08:17.621Z,19.07
2017-07-20T03:09:29.916Z,18.98
2017-07-20T03:10:42.582Z,18.97
2017-07-20T03:11:55.203Z,19.01
2017-07-20T03:13:07.774Z,18.97
2017-07-20T03:14:20.133Z,19.01
2017-07-20T03:15:32.678Z,18.98
2017-07-20T03:16:44.651Z,18.96
2017-07-20T03:17:57.329Z,19.01
2017-07-20T03:19:09.335Z,19.01
2017-07-20T03:20:21.945Z,18.97
2017-07-20T03:21:34.557Z,18.97
2017-07-20T03:22:47.153Z,18.97
2017-07-20T03:23:58.853Z,19.01
2017-07-20T03:25:11.580Z,18.96
2017-07-20T03:26:24.184Z,19.01
2017-07-20T03:27:36.759Z,18.98
2017-07-20T03:28:49.420Z,18.97
2017-07-20T03:30:01.797Z,19.12
2017-07-20T03:31:14.480Z,18.96
2017-07-20T03:32:27.119Z,19
2017-07-20T03:33:39.771Z,18.97
2017-07-20T03:34:52.339Z,18.97
2017-07-20T03:36:04.910Z,18.96
2017-07-20T03:37:17.442Z,19.08
2017-07-20T03:38:30.062Z,19.07
2017-07-20T03:39:42.677Z,18.96
2017-07-20T03:40:55.246Z,18.97
2017-07-20T03:42:07.564Z,19
2017-07-20T03:43:20.166Z,18.97
2017-07-20T03:44:32.779Z,18.98
2017-07-20T03:45:45.394Z,19
2017-07-20T03:46:58.001Z,18.97
2017-07-20T03:48:10.298Z,18.92
2017-07-20T03:49:22.620Z,19
2017-07-20T03:50:35.217Z,18.97
2017-07-20T03:51:47.836Z,18.98
2017-07-20T03:53:00.426Z,18.96
2017-07-20T03:54:12.766Z,18.94
2017-07-20T03:55:25.392Z,18.92
2017-07-20T03:56:38.014Z,19.01
2017-07-20T03:57:50.286Z,19.05
2017-07-20T03:59:02.951Z,18.96
2017-07-20T04:00:15.538Z,19
2017-07-20T04:01:27.879Z,18.98
2017-07-20T04:02:39.846Z,18.92
2017-07-20T04:03:52.395Z,19
2017-07-20T04:05:04.765Z,18.97
2017-07-20T04:06:17.090Z,18.94
2017-07-20T04:07:29.708Z,18.96
2017-07-20T04:08:42.384Z,18.94
2017-07-20T04:09:54.757Z,18.98
2017-07-20T04:11:07.106Z,19.04
2017-07-20T04:12:19.708Z,18.94
2017-07-20T04:13:32.361Z,18.97
2017-07-20T04:14:45.026Z,18.98
2017-07-20T04:15:57.653Z,18.94
2017-07-20T04:17:10.250Z,18.89
2017-07-20T04:18:22.947Z,18.94
2017-07-20T04:19:35.562Z,18.82
2017-07-20T04:20:48.393Z,18.81
2017-07-20T04:22:01.081Z,18.81
2017-07-20T04:23:13.699Z,18.81
2017-07-20T04:24:25.977Z,18.74
2017-07-20T04:25:38.590Z,18.81
2017-07-20T04:26:51.236Z,18.7
2017-07-20T04:28:03.837Z,18.68
2017-07-20T04:29:16.129Z,18.67
2017-07-20T04:30:28.672Z,18.67
2017-07-20T04:31:41.250Z,18.67
2017-07-20T04:32:53.568Z,18.67
2017-07-20T04:34:06.186Z,18.67
2017-07-20T04:35:18.750Z,18.66
2017-07-20T04:36:31.129Z,18.6
2017-07-20T04:37:43.425Z,18.6
2017-07-20T04:38:56.049Z,18.6
2017-07-20T04:40:08.391Z,18.61
2017-07-20T04:41:21.001Z,18.49
2017-07-20T04:42:33.876Z,18.57
2017-07-20T04:43:46.455Z,18.52
2017-07-20T04:44:58.992Z,18.48
2017-07-20T04:46:11.649Z,18.51
2017-07-20T04:47:24.267Z,18.53
2017-07-20T04:48:36.868Z,18.53
2017-07-20T04:49:49.189Z,18.49
2017-07-20T04:51:01.824Z,18.48
2017-07-20T04:52:14.415Z,18.49
2017-07-20T04:53:26.677Z,18.51
2017-07-20T04:54:39.016Z,18.55
2017-07-20T04:55:51.665Z,18.52
2017-07-20T04:57:04.288Z,18.53
2017-07-20T04:58:16.911Z,18.53
2017-07-20T04:59:29.209Z,18.6
2017-07-20T05:00:41.859Z,18.6
2017-07-20T05:01:53.943Z,18.63
2017-07-20T05:03:06.249Z,18.66
2017-07-20T05:04:18.862Z,18.61
2017-07-20T05:05:30.872Z,18.66
2017-07-20T05:06:43.512Z,18.64
2017-07-20T05:07:56.090Z,18.66
2017-07-20T05:09:08.347Z,18.64
2017-07-20T05:10:21.247Z,18.68
2017-07-20T05:11:33.846Z,18.7
2017-07-20T05:12:46.425Z,18.81
2017-07-20T05:13:58.974Z,18.73
2017-07-20T05:15:11.539Z,18.79
2017-07-20T05:16:24.143Z,18.79
2017-07-20T05:17:36.407Z,18.81
2017-07-20T05:18:49.061Z,18.78
2017-07-20T05:20:01.626Z,18.82
2017-07-20T05:21:14.193Z,18.86
2017-07-20T05:22:26.753Z,18.82
2017-07-20T05:23:39.393Z,18.79
2017-07-20T05:24:51.392Z,18.92
2017-07-20T05:26:03.330Z,18.86
2017-07-20T05:27:15.610Z,18.92
2017-07-20T05:28:27.633Z,18.96
2017-07-20T05:29:40.240Z,18.97
2017-07-20T05:30:52.872Z,19.09
2017-07-20T05:32:05.472Z,19.05
2017-07-20T05:33:17.819Z,19.07
2017-07-20T05:34:30.084Z,19.11
2017-07-20T05:35:42.369Z,19.17
2017-07-20T05:36:55.060Z,19.32
2017-07-20T05:38:07.430Z,19.3
2017-07-20T05:39:20.090Z,19.35
2017-07-20T05:40:32.420Z,19.44
2017-07-20T05:41:44.701Z,19.47
2017-07-20T05:42:57.280Z,19.45
2017-07-20T05:44:09.641Z,19.42
2017-07-20T05:45:22.245Z,19.45
2017-07-20T05:46:34.833Z,19.44
2017-07-20T05:47:47.438Z,19.44
2017-07-20T05:48:59.757Z,19.42
2017-07-20T05:50:12.378Z,19.45
2017-07-20T05:51:24.943Z,19.56
2017-07-20T05:52:37.570Z,19.57
2017-07-20T05:53:50.161Z,19.63
2017-07-20T05:55:02.518Z,19.7
2017-07-20T05:56:14.814Z,19.64
2017-07-20T05:57:27.452Z,19.7
2017-07-20T05:58:40.368Z,19.64
2017-07-20T05:59:52.708Z,19.64
2017-07-20T06:01:05.017Z,19.77
2017-07-20T06:02:17.615Z,19.67
2017-07-20T06:03:30.195Z,19.67
2017-07-20T06:04:42.807Z,19.79
2017-07-20T06:05:55.420Z,19.77
2017-07-20T06:07:07.772Z,19.81
2017-07-20T06:08:20.430Z,19.77
2017-07-20T06:09:33.115Z,19.81
2017-07-20T06:10:45.445Z,19.9
2017-07-20T06:11:58.057Z,19.92
2017-07-20T06:13:10.694Z,20
2017-07-20T06:14:23.252Z,20.02
2017-07-20T06:15:35.248Z,20
2017-07-20T06:16:47.863Z,20.18
2017-07-20T06:18:00.466Z,20.14
2017-07-20T06:19:12.758Z,20.12
2017-07-20T06:20:25.654Z,20.21
2017-07-20T06:21:37.978Z,20.33
2017-07-20T06:22:50.273Z,20.42
2017-07-20T06:24:01.981Z,20.39
2017-07-20T06:25:14.251Z,20.5
2017-07-20T06:26:25.954Z,20.59
2017-07-20T06:27:38.247Z,20.68
2017-07-20T06:28:50.822Z,20.71
2017-07-20T06:30:03.488Z,20.85
2017-07-20T06:31:16.032Z,20.92
2017-07-20T06:32:28.350Z,21.08
2017-07-20T06:33:40.984Z,21.25
2017-07-20T06:34:53.656Z,21.3
2017-07-20T06:36:06.227Z,21.51
2017-07-20T06:37:18.822Z,21.65
2017-07-20T06:38:31.440Z,21.77
2017-07-20T06:39:44.093Z,21.97
2017-07-20T06:40:56.695Z,22.22
2017-07-20T06:42:09.326Z,22.33
2017-07-20T06:43:22.005Z,22.44
2017-07-20T06:44:34.618Z,22.65
2017-07-20T06:45:46.930Z,22.78
2017-07-20T06:46:59.211Z,23.08
2017-07-20T06:48:11.827Z,23.23
2017-07-20T06:49:24.429Z,23.54
2017-07-20T06:50:37.026Z,23.62
2017-07-20T06:51:49.631Z,23.76
2017-07-20T06:53:01.977Z,24.14
2017-07-20T06:54:14.648Z,24.28
2017-07-20T06:55:27.268Z,24.59
2017-07-20T06:56:38.983Z,24.63
2017-07-20T06:57:51.306Z,24.77
2017-07-20T06:59:03.973Z,24.71
2017-07-20T07:00:16.575Z,24.74
2017-07-20T07:01:28.905Z,24.77
2017-07-20T07:02:41.486Z,24.78
2017-07-20T07:03:54.129Z,24.63
2017-07-20T07:05:06.403Z,24.71
2017-07-20T07:06:18.402Z,24.79
2017-07-20T07:07:31.034Z,24.85
2017-07-20T07:08:43.658Z,24.96
2017-07-20T07:09:55.676Z,24.99
2017-07-20T07:11:08.305Z,25.15
2017-07-20T07:12:20.952Z,25.33
2017-07-20T07:13:33.271Z,25.52
2017-07-20T07:14:45.824Z,25.78
2017-07-20T07:15:58.426Z,25.95
2017-07-20T07:17:10.803Z,26.27
2017-07-20T07:18:23.435Z,26.49
2017-07-20T07:19:35.745Z,26.74
2017-07-20T07:20:47.746Z,27.01
2017-07-20T07:22:00.398Z,27.2
2017-07-20T07:23:13.011Z,27.29
2017-07-20T07:24:25.337Z,27.29
2017-07-20T07:25:37.944Z,27.23
2017-07-20T07:26:49.654Z,27.23
2017-07-20T07:28:01.940Z,27.13
2017-07-20T07:29:14.545Z,27.18
2017-07-20T07:30:27.141Z,27.26
2017-07-20T07:31:39.459Z,27.35
2017-07-20T07:32:51.703Z,27.43
2017-07-20T07:34:04.336Z,27.48
2017-07-20T07:35:17.000Z,27.73
2017-07-20T07:36:29.289Z,27.76
2017-07-20T07:37:41.566Z,28
2017-07-20T07:38:54.184Z,28.22
2017-07-20T07:40:06.509Z,28.5
2017-07-20T07:41:19.135Z,28.7
2017-07-20T07:42:31.444Z,28.9
2017-07-20T07:43:44.051Z,29.25
2017-07-20T07:44:56.729Z,29.34
2017-07-20T07:46:08.805Z,29.37
2017-07-20T07:47:21.464Z,29.42
2017-07-20T07:48:34.162Z,29.3
2017-07-20T07:49:46.817Z,29.31
2017-07-20T07:50:59.422Z,29.1
2017-07-20T07:52:12.070Z,29
2017-07-20T07:53:24.435Z,28.93
2017-07-20T07:54:37.024Z,28.71
2017-07-20T07:55:49.683Z,28.57
2017-07-20T07:57:02.036Z,28.55
2017-07-20T07:58:14.339Z,28.41
2017-07-20T07:59:26.960Z,28.37
2017-07-20T08:00:39.565Z,28.45
2017-07-20T08:01:51.616Z,28.4
2017-07-20T08:03:03.955Z,28.55
2017-07-20T08:04:16.625Z,28.59
2017-07-20T08:05:28.981Z,28.6
2017-07-20T08:06:41.307Z,28.8
2017-07-20T08:07:53.611Z,28.83
2017-07-20T08:09:05.885Z,29.02
2017-07-20T08:10:18.195Z,29.24
2017-07-20T08:11:29.968Z,29.47
2017-07-20T08:12:42.345Z,29.79
2017-07-20T08:13:53.970Z,29.92
2017-07-20T08:15:06.555Z,29.9
2017-07-20T08:16:18.882Z,30.01
2017-07-20T08:17:30.860Z,30.26
2017-07-20T08:18:43.493Z,30.31
2017-07-20T08:19:56.160Z,30.61
2017-07-20T08:21:08.461Z,30.62
2017-07-20T08:22:21.006Z,30.7
2017-07-20T08:23:33.316Z,30.92
2017-07-20T08:24:45.958Z,30.89
2017-07-20T08:25:58.568Z,31.05
2017-07-20T08:27:11.239Z,31.1
2017-07-20T08:28:23.585Z,31.05
2017-07-20T08:29:36.237Z,31.14
2017-07-20T08:30:48.861Z,31.14
2017-07-20T08:32:01.506Z,31.3
2017-07-20T08:33:13.807Z,31.3
2017-07-20T08:34:26.149Z,31.32
2017-07-20T08:35:38.718Z,31.37
2017-07-20T08:36:50.989Z,31.5
2017-07-20T08:38:03.636Z,31.57
2017-07-20T08:39:15.908Z,31.63
2017-07-20T08:40:28.244Z,31.73
2017-07-20T08:41:40.829Z,31.73
2017-07-20T08:42:52.812Z,31.7
2017-07-20T08:44:05.444Z,31.72
2017-07-20T08:45:17.746Z,31.59
2017-07-20T08:46:30.354Z,31.57
2017-07-20T08:47:42.704Z,31.51
2017-07-20T08:48:55.301Z,31.42
2017-07-20T08:50:07.580Z,31.41
2017-07-20T08:51:19.626Z,31.33
2017-07-20T08:52:31.997Z,31.29
2017-07-20T08:53:44.593Z,31.15
2017-07-20T08:54:57.237Z,31.04
2017-07-20T08:56:09.603Z,30.95
2017-07-20T08:57:21.906Z,30.85
2017-07-20T08:58:34.523Z,30.77
2017-07-20T08:59:46.761Z,30.63
2017-07-20T09:00:58.763Z,30.7
2017-07-20T09:02:11.371Z,30.56
2017-07-20T09:03:23.953Z,30.54
2017-07-20T09:04:36.511Z,30.46
2017-07-20T09:05:48.180Z,30.36
2017-07-20T09:07:00.473Z,30.36
2017-07-20T09:08:13.041Z,30.32
2017-07-20T09:09:25.311Z,30.43
2017-07-20T09:10:37.841Z,30.43
2017-07-20T09:11:50.407Z,30.36
2017-07-20T09:13:02.715Z,30.52
2017-07-20T09:14:14.441Z,30.58
2017-07-20T09:15:27.038Z,30.58
2017-07-20T09:16:39.705Z,30.69
2017-07-20T09:17:51.704Z,30.56
2017-07-20T09:19:04.261Z,30.63
2017-07-20T09:20:16.246Z,30.61
2017-07-20T09:21:28.482Z,30.7
2017-07-20T09:22:41.097Z,30.61
2017-07-20T09:23:53.427Z,30.86
2017-07-20T09:25:05.439Z,30.74
2017-07-20T09:26:17.439Z,30.85
2017-07-20T09:27:30.078Z,30.91
2017-07-20T09:28:42.636Z,31.13
2017-07-20T09:29:55.266Z,31.15
2017-07-20T09:31:07.934Z,31.39
2017-07-20T09:32:20.562Z,31.51
2017-07-20T09:33:33.147Z,31.57
2017-07-20T09:34:45.754Z,31.51
2017-07-20T09:35:58.381Z,31.64
2017-07-20T09:37:10.634Z,31.69
2017-07-20T09:38:23.254Z,31.86
2017-07-20T09:39:35.594Z,31.79
2017-07-20T09:40:48.185Z,31.85
2017-07-20T09:42:00.517Z,31.86
2017-07-20T09:43:13.143Z,31.95
2017-07-20T09:44:25.784Z,32.05
2017-07-20T09:45:38.040Z,32.16
2017-07-20T09:46:50.612Z,32.19
2017-07-20T09:48:02.872Z,32.29
2017-07-20T09:49:15.475Z,32.38
2017-07-20T09:50:27.856Z,32.31
2017-07-20T09:51:40.453Z,32.48
2017-07-20T09:52:52.733Z,32.51
2017-07-20T09:54:04.985Z,32.61
2017-07-20T09:55:17.352Z,32.66
2017-07-20T09:56:30.033Z,32.72
2017-07-20T09:57:42.338Z,32.76
2017-07-20T09:58:54.329Z,32.82
2017-07-20T10:00:06.335Z,32.86
2017-07-20T10:01:18.953Z,32.88
2017-07-20T10:02:31.623Z,32.94
2017-07-20T10:03:44.167Z,32.82
2017-07-20T10:04:56.503Z,32.95
2017-07-20T10:06:08.889Z,33.04
2017-07-20T10:07:20.910Z,33.04
2017-07-20T10:08:33.245Z,33.12
2017-07-20T10:09:45.880Z,33.16
2017-07-20T10:10:58.449Z,33.29
2017-07-20T10:12:11.073Z,33.47
2017-07-20T10:13:23.663Z,33.75
2017-07-20T10:14:35.690Z,33.95
2017-07-20T10:15:48.248Z,34.07
2017-07-20T10:17:00.856Z,34.29
2017-07-20T10:18:13.163Z,34.41
2017-07-20T10:19:25.783Z,34.5
2017-07-20T10:20:37.771Z,34.58
2017-07-20T10:21:50.462Z,34.79
2017-07-20T10:23:03.047Z,34.98
2017-07-20T10:24:15.292Z,35.18
2017-07-20T10:25:27.902Z,35.35
2017-07-20T10:26:40.216Z,35.38
2017-07-20T10:27:52.911Z,35.52
2017-07-20T10:29:05.537Z,35.74
2017-07-20T10:30:17.861Z,35.84
2017-07-20T10:31:30.179Z,35.96
2017-07-20T10:32:42.475Z,36.14
2017-07-20T10:33:54.784Z,36.31
2017-07-20T10:35:07.124Z,36.43
2017-07-20T10:36:19.527Z,36.55
2017-07-20T10:37:32.109Z,36.66
2017-07-20T10:38:44.757Z,36.7
2017-07-20T10:39:57.064Z,36.7
2017-07-20T10:41:09.342Z,36.84
2017-07-20T10:42:21.961Z,37.04
2017-07-20T10:43:34.561Z,37.09
2017-07-20T10:44:46.880Z,37.22
2017-07-20T10:45:59.138Z,37.22
2017-07-20T10:47:11.772Z,37.26
2017-07-20T10:48:24.436Z,37.22
2017-07-20T10:49:37.043Z,37.37
2017-07-20T10:50:49.640Z,37.61
2017-07-20T10:52:02.242Z,37.76
2017-07-20T10:53:14.870Z,37.98
2017-07-20T10:54:27.479Z,38.01
2017-07-20T10:55:40.099Z,38.04
2017-07-20T10:56:52.096Z,38.27
2017-07-20T10:58:04.139Z,38.34
2017-07-20T10:59:16.765Z,38.5
2017-07-20T11:00:28.795Z,38.5
2017-07-20T11:01:41.371Z,38.68
2017-07-20T11:02:53.986Z,38.81
2017-07-20T11:04:06.025Z,39
2017-07-20T11:05:18.343Z,39.22
2017-07-20T11:06:30.982Z,39.34
2017-07-20T11:07:43.009Z,39.44
2017-07-20T11:08:55.328Z,39.48
2017-07-20T11:10:07.326Z,39.63
2017-07-20T11:11:19.958Z,39.56
2017-07-20T11:12:32.568Z,39.68
2017-07-20T11:13:45.183Z,39.66
2017-07-20T11:14:57.454Z,39.73
2017-07-20T11:16:09.728Z,39.67
2017-07-20T11:17:22.045Z,39.7
2017-07-20T11:18:34.669Z,39.48
2017-07-20T11:19:47.261Z,39.33
2017-07-20T11:20:59.574Z,39.23
2017-07-20T11:22:11.578Z,39.25
2017-07-20T11:23:23.599Z,39.26
2017-07-20T11:24:34.970Z,39.37
2017-07-20T11:25:47.292Z,39.3
2017-07-20T11:26:59.856Z,39.48
2017-07-20T11:28:12.434Z,39.52
2017-07-20T11:29:25.030Z,39.75
2017-07-20T11:30:37.601Z,39.8
2017-07-20T11:31:50.246Z,39.94
2017-07-20T11:33:02.854Z,39.76
2017-07-20T11:34:15.492Z,39.54
2017-07-20T11:35:28.088Z,39.34
2017-07-20T11:36:40.654Z,39.26
2017-07-20T11:37:53.269Z,39.19
2017-07-20T11:39:05.864Z,39.23
2017-07-20T11:40:17.901Z,39.23
2017-07-20T11:41:30.239Z,39.2
2017-07-20T11:42:42.828Z,39.23
2017-07-20T11:43:55.110Z,39.32
2017-07-20T11:45:07.705Z,39.33
2017-07-20T11:46:19.673Z,39.45
2017-07-20T11:47:31.645Z,39.6
2017-07-20T11:48:44.217Z,39.64
2017-07-20T11:49:56.860Z,39.73
2017-07-20T11:51:09.415Z,39.88
2017-07-20T11:52:22.051Z,39.79
2017-07-20T11:53:34.650Z,39.83
2017-07-20T11:54:46.911Z,39.94
2017-07-20T11:55:59.216Z,39.97
2017-07-20T11:57:12.046Z,40.16
2017-07-20T11:58:24.665Z,40.26
2017-07-20T11:59:37.233Z,40.23
2017-07-20T12:00:49.573Z,40.17
2017-07-20T12:02:01.872Z,40.08
2017-07-20T12:03:14.516Z,40.05
2017-07-20T12:04:26.789Z,39.93
2017-07-20T12:05:39.057Z,39.68
2017-07-20T12:06:51.384Z,39.64
2017-07-20T12:08:04.025Z,39.56
2017-07-20T12:09:16.619Z,39.41
2017-07-20T12:10:28.963Z,39.22
2017-07-20T12:11:41.590Z,39.07
2017-07-20T12:12:54.235Z,38.81
2017-07-20T12:14:06.903Z,38.65
2017-07-20T12:15:19.223Z,38.25
2017-07-20T12:16:31.807Z,38.01
2017-07-20T12:17:44.414Z,37.64
2017-07-20T12:18:57.016Z,37.64
2017-07-20T12:20:09.705Z,37.66
2017-07-20T12:21:22.029Z,37.88
2017-07-20T12:22:34.607Z,37.97
2017-07-20T12:23:47.301Z,38.16
2017-07-20T12:24:59.604Z,38.07
2017-07-20T12:26:11.929Z,37.95
2017-07-20T12:27:24.549Z,37.76
2017-07-20T12:28:37.172Z,37.73
2017-07-20T12:29:48.891Z,37.75
2017-07-20T12:31:01.500Z,37.73
2017-07-20T12:32:13.766Z,37.8
2017-07-20T12:33:25.772Z,37.88
2017-07-20T12:34:37.772Z,37.78
2017-07-20T12:35:50.129Z,37.76
2017-07-20T12:37:02.154Z,37.72
2017-07-20T12:38:14.495Z,37.73
2017-07-20T12:39:27.095Z,37.72
2017-07-20T12:40:39.637Z,37.86
2017-07-20T12:41:51.970Z,38.02
2017-07-20T12:43:04.608Z,38.1
2017-07-20T12:44:16.914Z,38.29
2017-07-20T12:45:29.550Z,38.41
2017-07-20T12:46:41.868Z,38.47
2017-07-20T12:47:54.192Z,38.44
2017-07-20T12:49:06.858Z,38.2
2017-07-20T12:50:19.473Z,38.12
2017-07-20T12:51:31.743Z,38.04
2017-07-20T12:52:43.711Z,37.95
2017-07-20T12:53:55.755Z,37.92
2017-07-20T12:55:08.095Z,37.75
2017-07-20T12:56:20.485Z,37.61
2017-07-20T12:57:32.723Z,37.67
2017-07-20T12:58:45.334Z,37.54
2017-07-20T12:59:57.693Z,37.54
2017-07-20T13:01:10.251Z,37.57
2017-07-20T13:02:22.282Z,37.48
2017-07-20T13:03:34.862Z,37.5
2017-07-20T13:04:47.507Z,37.57
2017-07-20T13:06:00.092Z,37.61
2017-07-20T13:07:12.367Z,37.64
2017-07-20T13:08:24.983Z,37.56
2017-07-20T13:09:37.593Z,37.54
2017-07-20T13:10:50.229Z,37.44
2017-07-20T13:12:02.534Z,37.36
2017-07-20T13:13:14.814Z,37.23
2017-07-20T13:14:27.399Z,37.14
2017-07-20T13:15:38.794Z,37.06
2017-07-20T13:16:51.340Z,36.96
2017-07-20T13:18:03.626Z,36.84
2017-07-20T13:19:15.650Z,36.7
2017-07-20T13:20:28.190Z,36.69
2017-07-20T13:21:40.528Z,36.73
2017-07-20T13:22:53.127Z,36.63
2017-07-20T13:24:05.715Z,36.66
2017-07-20T13:25:18.046Z,36.63
2017-07-20T13:26:30.310Z,36.6
2017-07-20T13:27:42.883Z,36.59
2017-07-20T13:28:55.512Z,36.67
2017-07-20T13:30:08.112Z,36.76
2017-07-20T13:31:20.670Z,36.84
2017-07-20T13:32:32.966Z,36.81
2017-07-20T13:33:45.512Z,36.96
2017-07-20T13:34:57.881Z,37
2017-07-20T13:36:10.187Z,37.01
2017-07-20T13:37:22.453Z,36.89
2017-07-20T13:38:34.728Z,36.91
2017-07-20T13:39:47.030Z,36.8
2017-07-20T13:40:59.676Z,36.66
2017-07-20T13:42:11.998Z,36.39
2017-07-20T13:43:24.324Z,36.22
2017-07-20T13:44:36.975Z,36.17
2017-07-20T13:45:49.586Z,36.03
2017-07-20T13:47:01.900Z,35.93
2017-07-20T13:48:14.185Z,35.69
2017-07-20T13:49:26.782Z,35.64
2017-07-20T13:50:39.080Z,35.34
2017-07-20T13:51:51.623Z,35.26
2017-07-20T13:53:04.244Z,34.96
2017-07-20T13:54:16.790Z,34.76
2017-07-20T13:55:28.768Z,34.62
2017-07-20T13:56:41.457Z,34.48
2017-07-20T13:57:53.703Z,34.18
2017-07-20T13:59:06.294Z,34.07
2017-07-20T14:00:18.571Z,33.79
2017-07-20T14:01:31.114Z,33.73
2017-07-20T14:02:43.714Z,33.61
2017-07-20T14:03:55.981Z,33.54
2017-07-20T14:05:08.279Z,33.39
2017-07-20T14:06:20.572Z,33.4
2017-07-20T14:07:33.190Z,33.2
2017-07-20T14:08:45.751Z,33.09
2017-07-20T14:09:58.089Z,33.09
2017-07-20T14:11:10.361Z,32.95
2017-07-20T14:12:23.052Z,32.78
2017-07-20T14:13:35.027Z,32.68
2017-07-20T14:14:47.346Z,32.61
2017-07-20T14:15:59.968Z,32.63
2017-07-20T14:17:12.568Z,32.57
2017-07-20T14:18:25.145Z,32.41
2017-07-20T14:19:37.154Z,32.34
2017-07-20T14:20:49.724Z,32.27
2017-07-20T14:22:02.319Z,32.16
2017-07-20T14:23:13.958Z,32.11
2017-07-20T14:24:26.238Z,32.15
2017-07-20T14:25:38.821Z,32.07
2017-07-20T14:26:51.141Z,32
2017-07-20T14:28:03.793Z,32
2017-07-20T14:29:16.101Z,31.81
2017-07-20T14:30:28.417Z,31.81
2017-07-20T14:31:41.029Z,31.7
2017-07-20T14:32:53.307Z,31.67
2017-07-20T14:34:05.908Z,31.63
2017-07-20T14:35:17.893Z,31.6
2017-07-20T14:36:29.896Z,31.55
2017-07-20T14:37:42.190Z,31.5
2017-07-20T14:38:54.536Z,31.48
2017-07-20T14:40:06.895Z,31.51
2017-07-20T14:41:19.266Z,31.41
2017-07-20T14:42:31.842Z,31.42
2017-07-20T14:43:43.858Z,31.48
2017-07-20T14:44:56.524Z,31.48
2017-07-20T14:46:08.521Z,31.57
2017-07-20T14:47:20.513Z,31.48
2017-07-20T14:48:33.136Z,31.41
2017-07-20T14:49:45.669Z,31.44
2017-07-20T14:50:57.964Z,31.48
2017-07-20T14:52:10.321Z,31.41
2017-07-20T14:53:22.575Z,31.35
2017-07-20T14:54:35.188Z,31.25
2017-07-20T14:55:47.789Z,31.2
2017-07-20T14:57:00.080Z,31.13
2017-07-20T14:58:12.124Z,31.11
2017-07-20T14:59:24.710Z,31.08
2017-07-20T15:00:37.294Z,31.1
2017-07-20T15:01:49.936Z,31.05
2017-07-20T15:03:02.555Z,30.96
2017-07-20T15:04:15.193Z,30.95
2017-07-20T15:05:27.509Z,30.93
2017-07-20T15:06:40.139Z,30.92
2017-07-20T15:07:52.751Z,30.86
2017-07-20T15:09:05.322Z,30.73
2017-07-20T15:10:17.983Z,30.77
2017-07-20T15:11:30.596Z,30.73
2017-07-20T15:12:43.152Z,30.78
2017-07-20T15:13:55.498Z,30.77
2017-07-20T15:15:07.177Z,30.67
2017-07-20T15:16:19.789Z,30.7
2017-07-20T15:17:32.329Z,30.59
2017-07-20T15:18:44.653Z,30.43
2017-07-20T15:19:57.292Z,30.39
2017-07-20T15:21:09.925Z,30.43
2017-07-20T15:22:22.291Z,30.36
2017-07-20T15:23:34.830Z,30.2
2017-07-20T15:24:47.505Z,30.14
2017-07-20T15:25:59.752Z,30.1
2017-07-20T15:27:12.061Z,30.01
2017-07-20T15:28:24.380Z,29.84
2017-07-20T15:29:36.366Z,29.8
2017-07-20T15:30:48.963Z,29.76
2017-07-20T15:32:01.226Z,29.62
2017-07-20T15:33:13.521Z,29.52
2017-07-20T15:34:26.104Z,29.52
2017-07-20T15:35:38.647Z,29.37
2017-07-20T15:36:51.241Z,29.22
2017-07-20T15:38:03.826Z,29.1